DAL8962 KLAS-KSFO
Flight info
| Callsign | DAL8962 |
|---|---|
| Flight time | 1h 3m |
| Altitude | 28000 |
| Route | JOHKR5 KENNO RUSME DYAMD5 |
| Aircraft | A332/H-SDE3GHIJ2J3J5M1RVWXY/LB2D1 |
Departure
| Time | 2026-05-06 03:29 |
|---|---|
| Airport | Harry Reid International Airport (KLAS) |
Arrival
| Time | 2026-05-06 04:32 |
|---|---|
| Airport | San Francisco International Airport (KSFO) |
| Time | Latitude | Longitude | Altitude | Speed | Heading |
|---|---|---|---|---|---|
| 2026-05-06 03:03 | 36.08043 | -115.13879 | 2097 ft | 0 kts | 344° |
| 2026-05-06 03:14 | 36.08026 | -115.13872 | 2096 ft | 4 kts | 338° |
| 2026-05-06 03:14 | 36.08002 | -115.13857 | 2096 ft | 4 kts | 319° |
| 2026-05-06 03:14 | 36.07988 | -115.13834 | 2096 ft | 4 kts | 267° |
| 2026-05-06 03:15 | 36.07991 | -115.13821 | 2096 ft | 1 kts | 225° |
| 2026-05-06 03:18 | 36.07989 | -115.13824 | 2097 ft | 1 kts | 225° |
| 2026-05-06 03:18 | 36.07985 | -115.13829 | 2097 ft | 0 kts | 225° |
| 2026-05-06 03:19 | 36.07982 | -115.13832 | 2097 ft | 6 kts | 225° |
| 2026-05-06 03:19 | 36.07923 | -115.13904 | 2097 ft | 8 kts | 225° |
| 2026-05-06 03:20 | 36.07922 | -115.13906 | 2097 ft | 0 kts | 225° |
| 2026-05-06 03:21 | 36.07920 | -115.13909 | 2097 ft | 1 kts | 225° |
| 2026-05-06 03:21 | 36.07904 | -115.13928 | 2097 ft | 6 kts | 225° |
| 2026-05-06 03:21 | 36.07876 | -115.13950 | 2097 ft | 5 kts | 189° |
| 2026-05-06 03:21 | 36.07840 | -115.13929 | 2097 ft | 5 kts | 133° |
| 2026-05-06 03:22 | 36.07829 | -115.13878 | 2097 ft | 7 kts | 98° |
| 2026-05-06 03:22 | 36.07812 | -115.13816 | 2097 ft | 8 kts | 131° |
| 2026-05-06 03:22 | 36.07768 | -115.13772 | 2096 ft | 9 kts | 134° |
| 2026-05-06 03:22 | 36.07755 | -115.13701 | 2096 ft | 9 kts | 89° |
| 2026-05-06 03:23 | 36.07756 | -115.13613 | 2096 ft | 11 kts | 90° |
| 2026-05-06 03:23 | 36.07755 | -115.13505 | 2095 ft | 14 kts | 90° |
| 2026-05-06 03:23 | 36.07754 | -115.13374 | 2093 ft | 17 kts | 90° |
| 2026-05-06 03:23 | 36.07756 | -115.13219 | 2090 ft | 20 kts | 89° |
| 2026-05-06 03:24 | 36.07757 | -115.13032 | 2079 ft | 24 kts | 90° |
| 2026-05-06 03:24 | 36.07754 | -115.12801 | 2073 ft | 29 kts | 90° |
| 2026-05-06 03:24 | 36.07753 | -115.12535 | 2064 ft | 33 kts | 90° |
| 2026-05-06 03:24 | 36.07755 | -115.12264 | 2056 ft | 12 kts | 90° |
| 2026-05-06 03:25 | 36.07755 | -115.12258 | 2056 ft | 0 kts | 90° |
| 2026-05-06 03:25 | 36.07755 | -115.12257 | 2056 ft | 1 kts | 90° |
| 2026-05-06 03:25 | 36.07755 | -115.12231 | 2055 ft | 5 kts | 90° |
| 2026-05-06 03:25 | 36.07752 | -115.12167 | 2053 ft | 9 kts | 103° |
| 2026-05-06 03:26 | 36.07703 | -115.12124 | 2053 ft | 10 kts | 167° |
| 2026-05-06 03:26 | 36.07651 | -115.12137 | 2052 ft | 6 kts | 218° |
| 2026-05-06 03:26 | 36.07640 | -115.12162 | 2059 ft | 1 kts | 262° |
| 2026-05-06 03:26 | 36.07641 | -115.12187 | 2058 ft | 0 kts | 270° |
| 2026-05-06 03:28 | 36.07641 | -115.12298 | 2058 ft | 48 kts | 270° |
| 2026-05-06 03:28 | 36.07639 | -115.13059 | 2081 ft | 126 kts | 269° |
| 2026-05-06 03:28 | 36.07655 | -115.14357 | 2480 ft | 163 kts | 266° |
| 2026-05-06 03:29 | 36.07655 | -115.15745 | 3423 ft | 154 kts | 267° |
| 2026-05-06 03:29 | 36.07645 | -115.17093 | 4009 ft | 166 kts | 268° |
| 2026-05-06 03:29 | 36.07633 | -115.18668 | 4263 ft | 201 kts | 268° |
| 2026-05-06 03:29 | 36.07602 | -115.20521 | 4714 ft | 226 kts | 264° |
| 2026-05-06 03:30 | 36.07391 | -115.22497 | 5483 ft | 236 kts | 260° |
| 2026-05-06 03:30 | 36.06957 | -115.24480 | 6391 ft | 244 kts | 246° |
| 2026-05-06 03:30 | 36.05914 | -115.26157 | 7220 ft | 255 kts | 219° |
| 2026-05-06 03:30 | 36.04288 | -115.27243 | 7755 ft | 277 kts | 203° |
| 2026-05-06 03:31 | 36.02457 | -115.28081 | 7970 ft | 289 kts | 200° |
| 2026-05-06 03:31 | 36.00544 | -115.28899 | 8032 ft | 291 kts | 200° |
| 2026-05-06 03:31 | 35.98678 | -115.29841 | 8216 ft | 290 kts | 207° |
| 2026-05-06 03:31 | 35.96844 | -115.30978 | 8839 ft | 298 kts | 208° |
| 2026-05-06 03:32 | 35.94993 | -115.32175 | 9863 ft | 301 kts | 208° |
| 2026-05-06 03:32 | 35.93140 | -115.33383 | 10574 ft | 304 kts | 208° |
| 2026-05-06 03:32 | 35.91254 | -115.34633 | 10947 ft | 308 kts | 211° |
| 2026-05-06 03:32 | 35.89591 | -115.36277 | 11046 ft | 307 kts | 232° |
| 2026-05-06 03:33 | 35.88659 | -115.38567 | 11048 ft | 302 kts | 259° |
| 2026-05-06 03:33 | 35.88490 | -115.41130 | 11054 ft | 301 kts | 273° |
| 2026-05-06 03:33 | 35.88545 | -115.43710 | 11052 ft | 301 kts | 275° |
| 2026-05-06 03:33 | 35.88626 | -115.46294 | 11054 ft | 302 kts | 275° |
| 2026-05-06 03:34 | 35.88700 | -115.48884 | 11052 ft | 302 kts | 275° |
| 2026-05-06 03:34 | 35.88762 | -115.51472 | 11049 ft | 301 kts | 274° |
| 2026-05-06 03:34 | 35.88820 | -115.54058 | 11050 ft | 301 kts | 275° |
| 2026-05-06 03:34 | 35.88876 | -115.56636 | 11056 ft | 301 kts | 274° |
| 2026-05-06 03:35 | 35.88929 | -115.59239 | 11266 ft | 309 kts | 274° |
| 2026-05-06 03:35 | 35.88987 | -115.61987 | 11627 ft | 332 kts | 274° |
| 2026-05-06 03:35 | 35.89042 | -115.64844 | 12323 ft | 342 kts | 274° |
| 2026-05-06 03:35 | 35.89095 | -115.67807 | 13210 ft | 347 kts | 274° |
| 2026-05-06 03:36 | 35.89150 | -115.70814 | 14026 ft | 353 kts | 274° |
| 2026-05-06 03:36 | 35.89205 | -115.73865 | 14784 ft | 358 kts | 274° |
| 2026-05-06 03:36 | 35.89260 | -115.76950 | 15558 ft | 362 kts | 274° |
| 2026-05-06 03:36 | 35.89315 | -115.80084 | 16281 ft | 368 kts | 274° |
| 2026-05-06 03:37 | 35.89370 | -115.83258 | 17029 ft | 372 kts | 274° |
| 2026-05-06 03:37 | 35.89425 | -115.86480 | 17785 ft | 377 kts | 274° |
| 2026-05-06 03:37 | 35.89617 | -115.89670 | 18415 ft | 379 kts | 282° |
| 2026-05-06 03:37 | 35.90258 | -115.92818 | 18785 ft | 377 kts | 294° |
| 2026-05-06 03:38 | 35.91415 | -115.95697 | 18891 ft | 373 kts | 307° |
| 2026-05-06 03:38 | 35.93019 | -115.98183 | 18897 ft | 369 kts | 317° |
| 2026-05-06 03:38 | 35.94819 | -116.00446 | 18884 ft | 369 kts | 319° |
| 2026-05-06 03:38 | 35.96650 | -116.02670 | 18877 ft | 370 kts | 319° |
| 2026-05-06 03:39 | 35.98487 | -116.04906 | 18877 ft | 370 kts | 319° |
| 2026-05-06 03:39 | 36.00296 | -116.07120 | 18872 ft | 370 kts | 319° |
| 2026-05-06 03:39 | 36.02122 | -116.09366 | 18874 ft | 370 kts | 319° |
| 2026-05-06 03:39 | 36.03944 | -116.11616 | 18873 ft | 370 kts | 319° |
| 2026-05-06 03:40 | 36.05761 | -116.13864 | 18856 ft | 370 kts | 319° |
| 2026-05-06 03:40 | 36.07588 | -116.16123 | 19048 ft | 372 kts | 319° |
| 2026-05-06 03:40 | 36.09428 | -116.18400 | 19632 ft | 376 kts | 319° |
| 2026-05-06 03:40 | 36.11286 | -116.20701 | 20303 ft | 378 kts | 319° |
| 2026-05-06 03:41 | 36.13151 | -116.23015 | 20899 ft | 382 kts | 319° |
| 2026-05-06 03:41 | 36.15014 | -116.25327 | 21478 ft | 386 kts | 320° |
| 2026-05-06 03:41 | 36.16921 | -116.27698 | 22024 ft | 391 kts | 320° |
| 2026-05-06 03:41 | 36.18852 | -116.30099 | 22589 ft | 395 kts | 320° |
| 2026-05-06 03:42 | 36.20796 | -116.32517 | 23188 ft | 398 kts | 321° |
| 2026-05-06 03:42 | 36.22767 | -116.34971 | 23713 ft | 402 kts | 321° |
| 2026-05-06 03:42 | 36.24751 | -116.37443 | 24197 ft | 405 kts | 321° |
| 2026-05-06 03:42 | 36.26743 | -116.39929 | 24698 ft | 407 kts | 322° |
| 2026-05-06 03:43 | 36.28756 | -116.42408 | 25178 ft | 409 kts | 323° |
| 2026-05-06 03:43 | 36.30788 | -116.44836 | 25616 ft | 412 kts | 324° |
| 2026-05-06 03:43 | 36.32863 | -116.47298 | 26086 ft | 414 kts | 324° |
| 2026-05-06 03:43 | 36.34952 | -116.49778 | 26559 ft | 416 kts | 324° |
| 2026-05-06 03:44 | 36.37053 | -116.52277 | 26994 ft | 419 kts | 324° |
| 2026-05-06 03:44 | 36.39167 | -116.54792 | 27337 ft | 425 kts | 324° |
| 2026-05-06 03:44 | 36.41325 | -116.57358 | 27528 ft | 434 kts | 324° |
| 2026-05-06 03:44 | 36.43528 | -116.59980 | 27720 ft | 443 kts | 324° |
| 2026-05-06 03:45 | 36.45804 | -116.62622 | 27820 ft | 452 kts | 326° |
| 2026-05-06 03:45 | 36.48155 | -116.65299 | 27808 ft | 463 kts | 325° |
| 2026-05-06 03:45 | 36.50560 | -116.68037 | 27827 ft | 473 kts | 325° |
| 2026-05-06 03:45 | 36.53017 | -116.70819 | 27813 ft | 480 kts | 325° |
| 2026-05-06 03:46 | 36.55454 | -116.73595 | 27833 ft | 481 kts | 325° |
| 2026-05-06 03:46 | 36.57920 | -116.76406 | 27830 ft | 481 kts | 324° |
| 2026-05-06 03:46 | 36.60388 | -116.79222 | 27832 ft | 480 kts | 325° |
| 2026-05-06 03:46 | 36.62853 | -116.82038 | 27829 ft | 480 kts | 324° |
| 2026-05-06 03:47 | 36.65313 | -116.84850 | 27826 ft | 479 kts | 324° |
| 2026-05-06 03:47 | 36.67764 | -116.87653 | 27832 ft | 478 kts | 324° |
| 2026-05-06 03:47 | 36.70221 | -116.90453 | 27831 ft | 478 kts | 324° |
| 2026-05-06 03:47 | 36.72710 | -116.93199 | 27841 ft | 475 kts | 328° |
| 2026-05-06 03:48 | 36.75416 | -116.95492 | 27839 ft | 467 kts | 337° |
| 2026-05-06 03:48 | 36.78262 | -116.97427 | 27842 ft | 465 kts | 339° |
| 2026-05-06 03:48 | 36.81130 | -116.99281 | 27844 ft | 464 kts | 339° |
| 2026-05-06 03:48 | 36.83995 | -117.01128 | 27846 ft | 464 kts | 339° |
| 2026-05-06 03:49 | 36.86872 | -117.02981 | 27849 ft | 465 kts | 339° |
| 2026-05-06 03:49 | 36.89715 | -117.04817 | 27853 ft | 466 kts | 339° |
| 2026-05-06 03:49 | 36.92590 | -117.06685 | 27860 ft | 466 kts | 339° |
| 2026-05-06 03:49 | 36.95463 | -117.08554 | 27854 ft | 466 kts | 339° |
| 2026-05-06 03:50 | 36.98343 | -117.10429 | 27857 ft | 466 kts | 339° |
| 2026-05-06 03:50 | 37.01226 | -117.12305 | 27849 ft | 466 kts | 338° |
| 2026-05-06 03:50 | 37.04103 | -117.14180 | 27869 ft | 466 kts | 338° |
| 2026-05-06 03:50 | 37.06987 | -117.16061 | 27868 ft | 467 kts | 338° |
| 2026-05-06 03:51 | 37.09870 | -117.17943 | 27871 ft | 467 kts | 338° |
| 2026-05-06 03:51 | 37.12747 | -117.19823 | 27881 ft | 467 kts | 338° |
| 2026-05-06 03:51 | 37.15625 | -117.21706 | 27882 ft | 466 kts | 338° |
| 2026-05-06 03:51 | 37.18503 | -117.23590 | 27881 ft | 466 kts | 338° |
| 2026-05-06 03:52 | 37.21379 | -117.25474 | 27882 ft | 466 kts | 338° |
| 2026-05-06 03:52 | 37.24222 | -117.27339 | 27887 ft | 465 kts | 338° |
| 2026-05-06 03:52 | 37.27093 | -117.29224 | 27894 ft | 465 kts | 338° |
| 2026-05-06 03:52 | 37.29891 | -117.31312 | 27891 ft | 471 kts | 331° |
| 2026-05-06 03:53 | 37.32496 | -117.33848 | 27895 ft | 475 kts | 326° |
| 2026-05-06 03:53 | 37.35027 | -117.36527 | 27893 ft | 476 kts | 326° |
| 2026-05-06 03:53 | 37.37551 | -117.39236 | 27896 ft | 476 kts | 326° |
| 2026-05-06 03:53 | 37.40075 | -117.41949 | 27895 ft | 476 kts | 326° |
| 2026-05-06 03:54 | 37.42559 | -117.44617 | 27902 ft | 476 kts | 326° |
| 2026-05-06 03:54 | 37.45061 | -117.47353 | 27901 ft | 478 kts | 323° |
| 2026-05-06 03:54 | 37.47397 | -117.50373 | 27899 ft | 484 kts | 317° |
| 2026-05-06 03:54 | 37.49437 | -117.53784 | 27893 ft | 493 kts | 308° |
| 2026-05-06 03:55 | 37.51036 | -117.57655 | 27899 ft | 503 kts | 298° |
| 2026-05-06 03:55 | 37.52044 | -117.61906 | 27898 ft | 512 kts | 286° |
| 2026-05-06 03:55 | 37.52527 | -117.66370 | 27901 ft | 516 kts | 281° |
| 2026-05-06 03:55 | 37.52866 | -117.70873 | 27901 ft | 516 kts | 280° |
| 2026-05-06 03:56 | 37.53186 | -117.75381 | 27900 ft | 516 kts | 280° |
| 2026-05-06 03:56 | 37.53507 | -117.79889 | 27904 ft | 516 kts | 280° |
| 2026-05-06 03:56 | 37.54156 | -117.88856 | 27906 ft | 517 kts | 280° |
| 2026-05-06 03:57 | 37.54486 | -117.93389 | 27908 ft | 516 kts | 280° |
| 2026-05-06 03:57 | 37.54813 | -117.97898 | 27909 ft | 516 kts | 280° |
| 2026-05-06 03:57 | 37.55028 | -118.00878 | 27909 ft | 516 kts | 280° |
| 2026-05-06 03:57 | 37.55353 | -118.05381 | 27908 ft | 516 kts | 280° |
| 2026-05-06 03:58 | 37.55782 | -118.11362 | 27908 ft | 517 kts | 280° |
| 2026-05-06 03:58 | 37.56104 | -118.15875 | 27939 ft | 517 kts | 280° |
| 2026-05-06 03:58 | 37.56425 | -118.20397 | 27949 ft | 517 kts | 280° |
| 2026-05-06 03:58 | 37.56641 | -118.23455 | 27950 ft | 518 kts | 280° |
| 2026-05-06 03:59 | 37.56958 | -118.27972 | 27943 ft | 517 kts | 280° |
| 2026-05-06 03:59 | 37.57272 | -118.32487 | 27960 ft | 517 kts | 280° |
| 2026-05-06 03:59 | 37.57586 | -118.37007 | 27936 ft | 518 kts | 280° |
| 2026-05-06 03:59 | 37.57895 | -118.41470 | 27954 ft | 517 kts | 279° |
| 2026-05-06 04:00 | 37.58205 | -118.45983 | 27959 ft | 516 kts | 279° |
| 2026-05-06 04:00 | 37.58515 | -118.50499 | 27957 ft | 516 kts | 279° |
| 2026-05-06 04:00 | 37.58820 | -118.54993 | 27941 ft | 514 kts | 279° |
| 2026-05-06 04:00 | 37.59124 | -118.59501 | 27707 ft | 514 kts | 279° |
| 2026-05-06 04:01 | 37.59427 | -118.63990 | 27477 ft | 513 kts | 279° |
| 2026-05-06 04:01 | 37.59725 | -118.68461 | 27227 ft | 511 kts | 279° |
| 2026-05-06 04:01 | 37.60018 | -118.72876 | 27152 ft | 510 kts | 279° |
| 2026-05-06 04:01 | 37.60313 | -118.77341 | 27146 ft | 509 kts | 279° |
| 2026-05-06 04:02 | 37.60607 | -118.81807 | 27148 ft | 509 kts | 279° |
| 2026-05-06 04:02 | 37.60894 | -118.86212 | 27147 ft | 508 kts | 279° |
| 2026-05-06 04:02 | 37.61184 | -118.90672 | 27147 ft | 508 kts | 279° |
| 2026-05-06 04:02 | 37.61471 | -118.95116 | 27146 ft | 508 kts | 279° |
| 2026-05-06 04:03 | 37.61757 | -118.99572 | 27122 ft | 507 kts | 279° |
| 2026-05-06 04:03 | 37.62039 | -119.03997 | 27106 ft | 505 kts | 279° |
| 2026-05-06 04:03 | 37.62317 | -119.08371 | 27007 ft | 505 kts | 279° |
| 2026-05-06 04:03 | 37.62596 | -119.12806 | 27003 ft | 505 kts | 279° |
| 2026-05-06 04:04 | 37.62874 | -119.17225 | 27004 ft | 505 kts | 279° |
| 2026-05-06 04:04 | 37.63150 | -119.21649 | 26997 ft | 504 kts | 279° |
| 2026-05-06 04:04 | 37.63421 | -119.26000 | 27018 ft | 504 kts | 279° |
| 2026-05-06 04:04 | 37.63692 | -119.30428 | 27024 ft | 504 kts | 279° |
| 2026-05-06 04:05 | 37.63962 | -119.34843 | 27019 ft | 504 kts | 278° |
| 2026-05-06 04:05 | 37.64230 | -119.39263 | 27036 ft | 503 kts | 278° |
| 2026-05-06 04:05 | 37.64494 | -119.43624 | 27022 ft | 503 kts | 278° |
| 2026-05-06 04:05 | 37.64759 | -119.48035 | 27036 ft | 503 kts | 278° |
| 2026-05-06 04:06 | 37.65022 | -119.52440 | 27053 ft | 503 kts | 278° |
| 2026-05-06 04:06 | 37.65282 | -119.56853 | 27045 ft | 504 kts | 278° |
| 2026-05-06 04:06 | 37.65541 | -119.61265 | 27060 ft | 504 kts | 278° |
| 2026-05-06 04:06 | 37.65800 | -119.65687 | 27056 ft | 504 kts | 278° |
| 2026-05-06 04:07 | 37.66053 | -119.70042 | 27051 ft | 504 kts | 278° |
| 2026-05-06 04:07 | 37.66308 | -119.74465 | 27064 ft | 504 kts | 278° |
| 2026-05-06 04:07 | 37.66562 | -119.78896 | 27071 ft | 504 kts | 278° |
| 2026-05-06 04:07 | 37.66815 | -119.83322 | 27064 ft | 504 kts | 278° |
| 2026-05-06 04:08 | 37.67062 | -119.87676 | 27077 ft | 504 kts | 278° |
| 2026-05-06 04:08 | 37.67309 | -119.92102 | 27074 ft | 504 kts | 278° |
| 2026-05-06 04:08 | 37.67549 | -119.96518 | 27068 ft | 504 kts | 278° |
| 2026-05-06 04:08 | 37.67796 | -120.00941 | 27074 ft | 504 kts | 278° |
| 2026-05-06 04:09 | 37.68042 | -120.05356 | 27076 ft | 504 kts | 278° |
| 2026-05-06 04:09 | 37.68286 | -120.09782 | 27070 ft | 504 kts | 278° |
| 2026-05-06 04:09 | 37.68526 | -120.14158 | 27069 ft | 505 kts | 278° |
| 2026-05-06 04:09 | 37.68765 | -120.18590 | 27063 ft | 504 kts | 278° |
| 2026-05-06 04:10 | 37.68991 | -120.22904 | 27073 ft | 477 kts | 278° |
| 2026-05-06 04:10 | 37.69196 | -120.26928 | 27093 ft | 447 kts | 279° |
| 2026-05-06 04:10 | 37.69404 | -120.30847 | 27075 ft | 449 kts | 279° |
| 2026-05-06 04:10 | 37.69620 | -120.34807 | 27064 ft | 454 kts | 279° |
| 2026-05-06 04:11 | 37.69809 | -120.38796 | 27064 ft | 457 kts | 276° |
| 2026-05-06 04:11 | 37.69635 | -120.42842 | 27065 ft | 462 kts | 268° |
| 2026-05-06 04:11 | 37.69213 | -120.46821 | 27067 ft | 463 kts | 266° |
| 2026-05-06 04:11 | 37.68736 | -120.50864 | 27067 ft | 464 kts | 265° |
| 2026-05-06 04:12 | 37.68255 | -120.54892 | 26753 ft | 463 kts | 265° |
| 2026-05-06 04:12 | 37.67776 | -120.58912 | 25965 ft | 457 kts | 265° |
| 2026-05-06 04:12 | 37.67310 | -120.62799 | 25353 ft | 437 kts | 265° |
| 2026-05-06 04:12 | 37.66871 | -120.66473 | 24815 ft | 422 kts | 266° |
| 2026-05-06 04:13 | 37.66439 | -120.70124 | 24274 ft | 420 kts | 266° |
| 2026-05-06 04:13 | 37.66011 | -120.73765 | 23721 ft | 420 kts | 265° |
| 2026-05-06 04:13 | 37.65578 | -120.77411 | 23108 ft | 419 kts | 265° |
| 2026-05-06 04:13 | 37.65143 | -120.81039 | 22555 ft | 417 kts | 265° |
| 2026-05-06 04:14 | 37.64709 | -120.84646 | 22002 ft | 413 kts | 265° |
| 2026-05-06 04:14 | 37.64277 | -120.88225 | 21458 ft | 410 kts | 265° |
| 2026-05-06 04:14 | 37.63847 | -120.91776 | 20903 ft | 407 kts | 265° |
| 2026-05-06 04:14 | 37.63424 | -120.95248 | 20383 ft | 404 kts | 265° |
| 2026-05-06 04:15 | 37.62972 | -120.98754 | 19849 ft | 402 kts | 264° |
| 2026-05-06 04:15 | 37.62511 | -121.02223 | 19296 ft | 399 kts | 264° |
| 2026-05-06 04:15 | 37.62049 | -121.05675 | 18752 ft | 397 kts | 264° |
| 2026-05-06 04:15 | 37.61596 | -121.09058 | 18193 ft | 394 kts | 264° |
| 2026-05-06 04:16 | 37.61139 | -121.12468 | 17599 ft | 391 kts | 264° |
| 2026-05-06 04:16 | 37.60685 | -121.15842 | 17061 ft | 386 kts | 263° |
| 2026-05-06 04:16 | 37.60236 | -121.19175 | 16469 ft | 384 kts | 263° |
| 2026-05-06 04:16 | 37.59790 | -121.22485 | 15909 ft | 380 kts | 263° |
| 2026-05-06 04:17 | 37.59356 | -121.25711 | 15379 ft | 376 kts | 264° |
| 2026-05-06 04:17 | 37.58962 | -121.28958 | 14870 ft | 372 kts | 265° |
| 2026-05-06 04:17 | 37.58591 | -121.32178 | 14358 ft | 369 kts | 265° |
| 2026-05-06 04:17 | 37.58226 | -121.35370 | 13814 ft | 367 kts | 265° |
| 2026-05-06 04:18 | 37.57863 | -121.38545 | 13260 ft | 364 kts | 265° |
| 2026-05-06 04:18 | 37.57500 | -121.41692 | 12731 ft | 360 kts | 265° |
| 2026-05-06 04:18 | 37.57139 | -121.44801 | 12239 ft | 356 kts | 265° |
| 2026-05-06 04:18 | 37.56782 | -121.47872 | 11736 ft | 352 kts | 265° |
| 2026-05-06 04:19 | 37.56433 | -121.50879 | 11408 ft | 344 kts | 265° |
| 2026-05-06 04:19 | 37.56092 | -121.53788 | 11316 ft | 327 kts | 265° |
| 2026-05-06 04:19 | 37.55766 | -121.56566 | 11219 ft | 312 kts | 265° |
| 2026-05-06 04:19 | 37.55450 | -121.59276 | 10798 ft | 313 kts | 265° |
| 2026-05-06 04:20 | 37.55111 | -121.61992 | 10318 ft | 314 kts | 261° |
| 2026-05-06 04:20 | 37.54577 | -121.64625 | 9944 ft | 313 kts | 257° |
| 2026-05-06 04:20 | 37.53961 | -121.67242 | 9541 ft | 310 kts | 256° |
| 2026-05-06 04:20 | 37.53336 | -121.69840 | 9135 ft | 308 kts | 256° |
| 2026-05-06 04:21 | 37.52724 | -121.72377 | 9031 ft | 295 kts | 255° |
| 2026-05-06 04:21 | 37.52138 | -121.74807 | 8918 ft | 283 kts | 256° |
| 2026-05-06 04:21 | 37.51570 | -121.77176 | 8516 ft | 280 kts | 255° |
| 2026-05-06 04:21 | 37.51013 | -121.79498 | 8142 ft | 272 kts | 255° |
| 2026-05-06 04:22 | 37.50477 | -121.81723 | 7769 ft | 262 kts | 255° |
| 2026-05-06 04:22 | 37.49966 | -121.83853 | 7436 ft | 245 kts | 255° |
| 2026-05-06 04:22 | 37.49611 | -121.85938 | 7142 ft | 247 kts | 263° |
| 2026-05-06 04:23 | 37.49196 | -121.90381 | 6339 ft | 258 kts | 266° |
| 2026-05-06 04:23 | 37.49008 | -121.92631 | 5937 ft | 256 kts | 265° |
| 2026-05-06 04:23 | 37.48820 | -121.94844 | 5563 ft | 252 kts | 265° |
| 2026-05-06 04:23 | 37.48627 | -121.97032 | 5192 ft | 249 kts | 265° |
| 2026-05-06 04:24 | 37.48432 | -121.99190 | 5028 ft | 248 kts | 264° |
| 2026-05-06 04:24 | 37.48245 | -122.01350 | 5012 ft | 247 kts | 267° |
| 2026-05-06 04:24 | 37.48283 | -122.03506 | 4980 ft | 249 kts | 279° |
| 2026-05-06 04:24 | 37.48720 | -122.05477 | 4972 ft | 216 kts | 292° |
| 2026-05-06 04:25 | 37.49292 | -122.07071 | 4997 ft | 184 kts | 297° |
| 2026-05-06 04:25 | 37.49833 | -122.08427 | 5037 ft | 178 kts | 298° |
| 2026-05-06 04:25 | 37.50434 | -122.09848 | 5032 ft | 188 kts | 301° |
| 2026-05-06 04:25 | 37.51093 | -122.11292 | 4952 ft | 191 kts | 300° |
| 2026-05-06 04:26 | 37.51733 | -122.12761 | 4582 ft | 190 kts | 298° |
| 2026-05-06 04:26 | 37.52352 | -122.14231 | 4074 ft | 188 kts | 297° |
| 2026-05-06 04:26 | 37.52952 | -122.15653 | 3680 ft | 182 kts | 296° |
| 2026-05-06 04:26 | 37.53533 | -122.17060 | 3417 ft | 177 kts | 296° |
| 2026-05-06 04:27 | 37.54086 | -122.18367 | 3141 ft | 160 kts | 296° |
| 2026-05-06 04:27 | 37.54585 | -122.19543 | 2919 ft | 143 kts | 296° |
| 2026-05-06 04:27 | 37.55026 | -122.20592 | 2747 ft | 128 kts | 296° |
| 2026-05-06 04:27 | 37.55423 | -122.21537 | 2578 ft | 117 kts | 296° |
| 2026-05-06 04:28 | 37.55800 | -122.22439 | 2430 ft | 116 kts | 296° |
| 2026-05-06 04:28 | 37.56177 | -122.23339 | 2273 ft | 116 kts | 296° |
| 2026-05-06 04:28 | 37.56555 | -122.24245 | 2119 ft | 117 kts | 296° |
| 2026-05-06 04:28 | 37.56931 | -122.25141 | 1950 ft | 117 kts | 295° |
| 2026-05-06 04:29 | 37.57312 | -122.26050 | 1792 ft | 117 kts | 295° |
| 2026-05-06 04:29 | 37.57694 | -122.26962 | 1635 ft | 117 kts | 296° |
| 2026-05-06 04:29 | 37.58074 | -122.27869 | 1472 ft | 117 kts | 295° |
| 2026-05-06 04:29 | 37.58454 | -122.28777 | 1308 ft | 118 kts | 295° |
| 2026-05-06 04:30 | 37.58836 | -122.29691 | 1133 ft | 118 kts | 295° |
| 2026-05-06 04:30 | 37.59219 | -122.30606 | 976 ft | 118 kts | 295° |
| 2026-05-06 04:30 | 37.59598 | -122.31511 | 814 ft | 116 kts | 296° |
| 2026-05-06 04:30 | 37.59976 | -122.32413 | 658 ft | 116 kts | 296° |
| 2026-05-06 04:31 | 37.60350 | -122.33305 | 488 ft | 116 kts | 296° |
| 2026-05-06 04:31 | 37.60605 | -122.33915 | 392 ft | 116 kts | 295° |
| 2026-05-06 04:31 | 37.61101 | -122.35101 | 198 ft | 116 kts | 295° |
| 2026-05-06 04:31 | 37.61475 | -122.35994 | 48 ft | 113 kts | 296° |
| 2026-05-06 04:32 | 37.61764 | -122.36705 | 24 ft | 37 kts | 300° |
| 2026-05-06 04:32 | 37.61879 | -122.36989 | 22 ft | 31 kts | 288° |
| 2026-05-06 04:32 | 37.61853 | -122.37099 | 24 ft | 0 kts | 218° |
| 2026-05-06 04:32 | 37.61834 | -122.37115 | 27 ft | 3 kts | 208° |
| 2026-05-06 04:33 | 37.61778 | -122.37149 | 28 ft | 11 kts | 208° |
| 2026-05-06 04:33 | 37.61705 | -122.37200 | 26 ft | 13 kts | 208° |
| 2026-05-06 04:33 | 37.61655 | -122.37236 | 32 ft | 2 kts | 217° |
| 2026-05-06 04:33 | 37.61631 | -122.37276 | 27 ft | 3 kts | 265° |
| 2026-05-06 04:34 | 37.61648 | -122.37341 | 27 ft | 23 kts | 294° |
| 2026-05-06 04:34 | 37.61723 | -122.37519 | 26 ft | 24 kts | 296° |
| 2026-05-06 04:34 | 37.61780 | -122.37711 | 23 ft | 24 kts | 290° |
| 2026-05-06 04:34 | 37.61824 | -122.37844 | 27 ft | 25 kts | 297° |
| 2026-05-06 04:35 | 37.61950 | -122.37995 | 31 ft | 19 kts | 306° |
| 2026-05-06 04:35 | 37.62015 | -122.38141 | 27 ft | 20 kts | 298° |
| 2026-05-06 04:35 | 37.62081 | -122.38295 | 27 ft | 21 kts | 298° |
| 2026-05-06 04:35 | 37.62156 | -122.38470 | 30 ft | 24 kts | 298° |
| 2026-05-06 04:36 | 37.62237 | -122.38665 | 23 ft | 27 kts | 297° |
| 2026-05-06 04:36 | 37.62320 | -122.38866 | 20 ft | 14 kts | 295° |
| 2026-05-06 04:36 | 37.62336 | -122.38990 | 19 ft | 16 kts | 260° |
| 2026-05-06 04:36 | 37.62307 | -122.39110 | 19 ft | 9 kts | 251° |
| 2026-05-06 04:37 | 37.62279 | -122.39168 | 21 ft | 9 kts | 229° |
| 2026-05-06 04:37 | 37.62239 | -122.39201 | 20 ft | 8 kts | 211° |
| 2026-05-06 04:37 | 37.62184 | -122.39243 | 20 ft | 11 kts | 211° |
| 2026-05-06 04:37 | 37.62118 | -122.39282 | 20 ft | 11 kts | 207° |
| 2026-05-06 04:38 | 37.62046 | -122.39328 | 22 ft | 12 kts | 207° |
| 2026-05-06 04:38 | 37.61989 | -122.39406 | 21 ft | 13 kts | 246° |
| 2026-05-06 04:38 | 37.61954 | -122.39500 | 24 ft | 12 kts | 228° |
| 2026-05-06 04:38 | 37.61881 | -122.39530 | 25 ft | 12 kts | 167° |
| 2026-05-06 04:39 | 37.61798 | -122.39497 | 23 ft | 13 kts | 151° |
| 2026-05-06 04:39 | 37.61739 | -122.39394 | 22 ft | 16 kts | 119° |
| 2026-05-06 04:39 | 37.61690 | -122.39275 | 19 ft | 7 kts | 117° |
| 2026-05-06 04:39 | 37.61685 | -122.39217 | 18 ft | 5 kts | 59° |
| 2026-05-06 04:40 | 37.61715 | -122.39194 | 18 ft | 6 kts | 27° |
| 2026-05-06 04:40 | 37.61739 | -122.39178 | 19 ft | 0 kts | 26° |